Portada
METAR-TAF:

METAR-TAF

Aeroports :

Lihue, Hawaii, Estats Units d'Amèrica

latitud: 21-59-02N, longitud: 159-20-28W, altitud: 45 m

Observació

L'informe es va fer fa 26 minuts, a les 11:05 UTC
Vent 14 kt del Est/Nord-Est amb ràfegues de 20 kt
Temperatura 24°C
Humitat 83%
Pressió 1019 hPa
Visibilitat: 14.5 km
Escasses núvols a una alçada de 1400 ft
Cel ennuvolat a una alçada de 1900 ft
Cel cobert a una alçada de 5000 ft
pluja

METAR: PHLI 231105Z AUTO 06014G20KT 9SM -RA FEW014 BKN019 OVC050 24/21 A3010 RMK AO2 RAB1059 P0000 T02390211 TSNO $

Hora: 01:31 (11:31 UTC)

Pronòstic

L'informe es va fer fa 6 hores i 10 minuts, a les 05:21 UTC
Pronòstic vàlid del 23 a les 06 UTC al 24 a les 06 UTC
Vent 15 kt del Nord-Est
Visibilitat: 10 km
Escasses núvols a una alçada de 2000 ft
Núvols disperses a una alçada de 2500 ft
Cel ennuvolat a una alçada de 4500 ft
xàfecs en les proximitats,

TAF: PHLI 230521Z 2306/2406 05015KT P6SM VCSH FEW020 SCT025 BKN045

Observacions i pronòstics meteorològics de més de 4000 aeroports (METAR i TAF).

Les estacions disponibles són els punts grocs i vermells al mapa.

Posi el ratolí al punt desitjat per veure el nom de l'estació.

Feu clic per veure les observacions i els pronòstics meteorològics.

Per canviar el mapa: feu clic els botons verds amb una creu de color negre per apropar; al botó verd amb un guió per allunyar la imatge; o en les fletxes verdes per a mapes adjacents.


METAR-TAF: